createdAt,value
2022-08-30T00:01:16.044Z,101818.09
2022-08-30T00:03:46.269Z,101849.38
2022-08-30T00:06:18.657Z,101842.13
2022-08-30T00:08:46.480Z,101832.13
2022-08-30T00:11:19.292Z,101810.63
2022-08-30T00:13:49.789Z,101825.56
2022-08-30T00:16:18.588Z,101833.69
2022-08-30T00:18:46.583Z,101835.78
2022-08-30T00:21:15.001Z,101811.50
2022-08-30T00:23:42.072Z,101822.44
2022-08-30T00:26:09.068Z,101826.81
2022-08-30T00:28:37.340Z,101822.31
2022-08-30T00:31:05.961Z,101812.63
2022-08-30T00:33:33.446Z,101809.97
2022-08-30T00:36:01.681Z,101821.44
2022-08-30T00:38:28.776Z,101806.84
2022-08-30T00:40:55.868Z,101810.53
2022-08-30T00:43:29.454Z,101823.91
2022-08-30T00:45:57.289Z,101812.00
2022-08-30T00:48:24.499Z,101816.72
2022-08-30T00:51:19.662Z,101807.03
2022-08-30T00:53:51.781Z,101811.81
2022-08-30T00:56:19.663Z,101794.09
2022-08-30T00:58:52.759Z,101791.00
2022-08-30T01:01:20.400Z,101796.69
2022-08-30T01:03:47.936Z,101803.63
2022-08-30T01:06:16.437Z,101817.75
2022-08-30T01:08:45.996Z,101813.84
2022-08-30T01:11:15.698Z,101810.16
2022-08-30T01:13:44.319Z,101808.16
2022-08-30T01:16:11.418Z,101813.97
2022-08-30T01:18:39.608Z,101815.25
2022-08-30T01:21:21.482Z,101812.91
2022-08-30T01:23:53.735Z,101824.81
2022-08-30T01:26:21.856Z,101816.22
2022-08-30T01:28:54.754Z,101811.41
2022-08-30T01:31:21.938Z,101820.97
2022-08-30T01:33:48.938Z,101806.72
2022-08-30T01:36:17.298Z,101820.38
2022-08-30T01:38:54.746Z,101780.03
2022-08-30T01:41:34.677Z,101803.19
2022-08-30T01:44:12.826Z,101818.97
2022-08-30T01:46:46.400Z,101813.19
2022-08-30T01:49:17.808Z,101813.19
2022-08-30T01:52:00.570Z,101808.50
2022-08-30T01:54:36.920Z,101800.72
2022-08-30T01:57:08.179Z,101795.47
2022-08-30T01:59:35.654Z,101798.03
2022-08-30T02:02:03.909Z,101796.59
2022-08-30T02:04:31.380Z,101798.31
2022-08-30T02:06:58.748Z,101794.34
2022-08-30T02:09:25.651Z,101806.41
2022-08-30T02:11:52.622Z,101822.97
2022-08-30T02:14:21.211Z,101807.53
2022-08-30T02:16:48.650Z,101796.56
2022-08-30T02:19:16.314Z,101791.47
2022-08-30T02:21:43.206Z,101791.03
2022-08-30T02:24:10.250Z,101794.00
2022-08-30T02:26:37.205Z,101797.50
2022-08-30T02:29:05.931Z,101793.38
2022-08-30T02:31:33.288Z,101793.44
2022-08-30T02:34:00.204Z,101793.03
2022-08-30T02:36:27.633Z,101792.50
2022-08-30T02:38:54.589Z,101787.28
2022-08-30T02:41:23.521Z,101791.25
2022-08-30T02:43:51.529Z,101797.84
2022-08-30T02:46:18.883Z,101790.34
2022-08-30T02:48:45.923Z,101787.25
2022-08-30T02:51:14.022Z,101787.19
2022-08-30T02:53:43.877Z,101785.50
2022-08-30T02:56:12.767Z,101781.63
2022-08-30T02:58:42.413Z,101786.00
2022-08-30T03:01:13.872Z,101774.84
2022-08-30T03:03:42.976Z,101752.72
2022-08-30T03:06:13.246Z,101766.75
2022-08-30T03:08:40.701Z,101766.19
2022-08-30T03:11:08.203Z,101767.91
2022-08-30T03:13:35.485Z,101773.19
2022-08-30T03:16:02.584Z,101796.38
2022-08-30T03:18:29.630Z,101782.16
2022-08-30T03:20:56.790Z,101785.56
2022-08-30T03:23:24.326Z,101767.53
2022-08-30T03:25:53.607Z,101767.41
2022-08-30T03:28:20.630Z,101765.13
2022-08-30T03:30:48.025Z,101767.03
2022-08-30T03:33:15.186Z,101757.63
2022-08-30T03:35:42.140Z,101766.44
2022-08-30T03:38:09.033Z,101764.16
2022-08-30T03:40:36.222Z,101762.22
2022-08-30T03:43:03.802Z,101761.13
2022-08-30T03:45:32.394Z,101768.44
2022-08-30T03:47:59.628Z,101766.88
2022-08-30T03:50:26.741Z,101775.38
2022-08-30T03:52:53.641Z,101767.69
2022-08-30T03:55:21.587Z,101776.22
2022-08-30T03:57:48.509Z,101764.59
2022-08-30T04:00:19.289Z,101774.94
2022-08-30T04:02:46.284Z,101768.97
2022-08-30T04:05:14.105Z,101773.47
2022-08-30T04:07:43.330Z,101771.53
2022-08-30T04:10:10.820Z,101761.66
2022-08-30T04:12:38.688Z,101782.09
2022-08-30T04:15:07.731Z,101768.00
2022-08-30T04:17:34.700Z,101759.81
2022-08-30T04:20:01.776Z,101762.31
2022-08-30T04:22:28.679Z,101763.84
2022-08-30T04:24:55.661Z,101775.38
2022-08-30T04:27:22.680Z,101775.47
2022-08-30T04:29:49.719Z,101777.59
2022-08-30T04:32:17.531Z,101771.28
2022-08-30T04:34:44.676Z,101774.50
2022-08-30T04:37:11.745Z,101770.25
2022-08-30T04:39:39.797Z,101774.19
2022-08-30T04:42:06.935Z,101756.91
2022-08-30T04:44:34.054Z,101760.22
2022-08-30T04:47:00.990Z,101769.44
2022-08-30T04:49:27.902Z,101766.97
2022-08-30T04:51:55.845Z,101769.72
2022-08-30T04:54:22.821Z,101773.38
2022-08-30T04:56:49.714Z,101762.22
2022-08-30T04:59:16.843Z,101764.31
2022-08-30T05:01:45.087Z,101771.38
2022-08-30T05:04:14.882Z,101765.94
2022-08-30T05:06:42.714Z,101771.38
2022-08-30T05:09:09.869Z,101762.28
2022-08-30T05:11:38.909Z,101764.59
2022-08-30T05:14:06.414Z,101766.78
2022-08-30T05:16:33.435Z,101772.09
2022-08-30T05:19:00.436Z,101771.19
2022-08-30T05:21:29.022Z,101783.44
2022-08-30T05:23:59.842Z,101773.09
2022-08-30T05:26:34.283Z,101770.72
2022-08-30T05:29:01.787Z,101779.06
2022-08-30T05:31:36.901Z,101775.31
2022-08-30T05:34:05.536Z,101790.44
2022-08-30T05:36:35.574Z,101788.69
2022-08-30T05:39:02.657Z,101780.78
2022-08-30T05:41:33.424Z,101783.53
2022-08-30T05:44:02.566Z,101776.50
2022-08-30T05:49:07.430Z,101772.59
2022-08-30T05:51:40.218Z,101768.88
2022-08-30T05:54:10.771Z,101776.59
2022-08-30T05:56:39.206Z,101774.75
2022-08-30T05:59:08.781Z,101760.50
2022-08-30T06:01:40.584Z,101764.22
2022-08-30T06:04:10.694Z,101759.22
2022-08-30T06:06:40.655Z,101765.16
2022-08-30T06:09:11.004Z,101779.34
2022-08-30T06:11:38.302Z,101773.75
2022-08-30T06:14:06.192Z,101777.41
2022-08-30T06:16:33.322Z,101773.75
2022-08-30T06:19:00.690Z,101771.00
2022-08-30T06:21:37.060Z,101774.34
2022-08-30T06:24:06.915Z,101770.16
2022-08-30T06:26:42.981Z,101777.88
2022-08-30T06:29:13.203Z,101782.97
2022-08-30T06:31:40.393Z,101779.97
2022-08-30T06:34:07.646Z,101773.09
2022-08-30T06:36:34.631Z,101753.78
2022-08-30T06:39:02.477Z,101754.81
2022-08-30T06:41:32.958Z,101755.16
2022-08-30T06:44:02.599Z,101757.75
2022-08-30T06:46:33.661Z,101758.22
2022-08-30T06:49:02.063Z,101763.78
2022-08-30T06:51:33.073Z,101768.31
2022-08-30T06:54:02.780Z,101766.69
2022-08-30T06:56:31.154Z,101756.53
2022-08-30T06:58:58.701Z,101769.75
2022-08-30T07:01:28.136Z,101754.38
2022-08-30T07:03:55.705Z,101768.38
2022-08-30T07:06:24.594Z,101771.22
2022-08-30T07:08:55.945Z,101765.06
2022-08-30T07:11:37.479Z,101759.38
2022-08-30T07:14:05.755Z,101767.00
2022-08-30T07:16:34.055Z,101758.78
2022-08-30T07:19:03.048Z,101765.28
2022-08-30T07:21:40.236Z,101750.16
2022-08-30T07:24:09.901Z,101754.06
2022-08-30T07:26:49.021Z,101745.16
2022-08-30T07:29:17.973Z,101746.50
2022-08-30T07:31:45.930Z,101752.59
2022-08-30T07:34:13.086Z,101753.81
2022-08-30T07:36:40.262Z,101748.69
2022-08-30T07:39:08.178Z,101747.84
2022-08-30T07:41:40.735Z,101748.88
2022-08-30T07:44:09.041Z,101746.28
2022-08-30T07:46:38.592Z,101744.84
2022-08-30T07:49:11.019Z,101741.38
2022-08-30T07:51:39.979Z,101748.91
2022-08-30T07:54:07.541Z,101746.19
2022-08-30T07:56:35.247Z,101751.09
2022-08-30T07:59:02.311Z,101749.50
2022-08-30T08:01:29.456Z,101754.72
2022-08-30T08:03:56.638Z,101747.97
2022-08-30T08:06:24.649Z,101745.72
2022-08-30T08:08:52.112Z,101752.91
2022-08-30T08:11:26.745Z,101747.44
2022-08-30T08:13:55.699Z,101747.94
2022-08-30T08:16:25.966Z,101750.53
2022-08-30T08:18:53.927Z,101742.75
2022-08-30T08:21:22.359Z,101751.34
2022-08-30T08:23:50.050Z,101743.19
2022-08-30T08:26:17.733Z,101738.44
2022-08-30T08:28:47.012Z,101747.03
2022-08-30T08:31:21.156Z,101738.69
2022-08-30T08:33:48.772Z,101751.19
2022-08-30T08:36:15.921Z,101748.63
2022-08-30T08:38:42.976Z,101745.47
2022-08-30T08:41:21.682Z,101749.66
2022-08-30T08:43:48.648Z,101755.31
2022-08-30T08:46:40.860Z,101747.91
2022-08-30T08:49:12.642Z,101746.69
2022-08-30T08:51:59.308Z,101749.78
2022-08-30T08:54:59.514Z,101744.19
2022-08-30T08:57:31.823Z,101739.59
2022-08-30T08:59:59.449Z,101733.66
2022-08-30T09:02:47.815Z,101734.38
2022-08-30T09:05:25.982Z,101734.00
2022-08-30T09:08:06.625Z,101732.50
2022-08-30T09:10:49.862Z,101728.13
2022-08-30T09:13:19.088Z,101737.16
2022-08-30T09:15:49.916Z,101739.34
2022-08-30T09:18:20.081Z,101737.13
2022-08-30T09:20:51.610Z,101743.66
2022-08-30T09:23:18.602Z,101739.16
2022-08-30T09:26:02.289Z,101743.50
2022-08-30T09:28:51.002Z,101748.19
2022-08-30T09:31:33.865Z,101746.69
2022-08-30T09:34:05.395Z,101739.38
2022-08-30T09:36:49.619Z,101734.91
2022-08-30T09:39:18.184Z,101733.78
2022-08-30T09:41:49.957Z,101737.25
2022-08-30T09:44:30.549Z,101723.47
2022-08-30T09:47:00.200Z,101723.78
2022-08-30T09:49:30.364Z,101740.84
2022-08-30T09:55:47.443Z,101735.16
2022-08-30T09:58:36.333Z,101741.69
2022-08-30T10:01:29.550Z,101740.03
2022-08-30T10:04:18.552Z,101720.16
2022-08-30T10:07:06.560Z,101730.00
2022-08-30T10:10:18.345Z,101734.41
2022-08-30T10:13:20.631Z,101738.19
2022-08-30T10:15:58.910Z,101729.75
2022-08-30T10:18:55.805Z,101729.91
2022-08-30T10:21:45.626Z,101722.72
2022-08-30T10:24:22.781Z,101728.88
2022-08-30T10:26:59.557Z,101723.78
2022-08-30T10:29:50.281Z,101722.03
2022-08-30T10:32:32.524Z,101724.50
2022-08-30T10:35:09.955Z,101719.31
2022-08-30T10:38:02.849Z,101717.13
2022-08-30T10:40:59.113Z,101718.22
2022-08-30T10:44:01.609Z,101719.53
2022-08-30T10:46:53.940Z,101710.06
2022-08-30T10:49:28.603Z,101708.00
2022-08-30T10:52:26.261Z,101705.84
2022-08-30T10:55:00.721Z,101714.09
2022-08-30T10:57:27.710Z,101706.53
2022-08-30T11:00:02.708Z,101707.09
2022-08-30T11:03:08.012Z,101696.91
2022-08-30T11:06:12.250Z,101708.47
2022-08-30T11:09:15.420Z,101706.91
2022-08-30T11:12:08.234Z,101700.13
2022-08-30T11:14:41.752Z,101698.22
2022-08-30T11:17:35.167Z,101706.97
2022-08-30T11:20:24.277Z,101707.19
2022-08-30T11:23:22.569Z,101699.41
2022-08-30T11:26:06.541Z,101700.38
2022-08-30T11:28:37.573Z,101705.06
2022-08-30T11:31:37.691Z,101700.97
2022-08-30T11:34:06.249Z,101707.72
2022-08-30T11:36:37.295Z,101712.06
2022-08-30T11:39:10.109Z,101710.34
2022-08-30T11:41:47.867Z,101708.03
2022-08-30T11:44:26.074Z,101705.13
2022-08-30T11:46:58.641Z,101712.75
2022-08-30T11:49:58.026Z,101714.84
2022-08-30T11:52:48.847Z,101717.22
2022-08-30T11:55:45.711Z,101711.16
2022-08-30T11:58:36.558Z,101692.84
2022-08-30T12:01:49.831Z,101705.31
2022-08-30T12:04:19.567Z,101696.13
2022-08-30T12:07:08.555Z,101693.31
2022-08-30T12:09:35.543Z,101693.13
2022-08-30T12:12:06.306Z,101702.44
2022-08-30T12:14:53.167Z,101703.69
2022-08-30T12:18:06.609Z,101700.19
2022-08-30T12:20:48.991Z,101704.53
2022-08-30T12:23:27.815Z,101693.88
2022-08-30T12:26:25.417Z,101693.31
2022-08-30T12:29:17.907Z,101704.56
2022-08-30T12:32:00.140Z,101690.75
2022-08-30T12:34:55.285Z,101694.75
2022-08-30T12:37:28.828Z,101692.53
2022-08-30T12:40:10.028Z,101683.44
2022-08-30T12:42:49.575Z,101679.59
2022-08-30T12:45:20.962Z,101685.88
2022-08-30T12:48:06.982Z,101679.72
2022-08-30T12:50:56.777Z,101675.97
2022-08-30T12:53:32.305Z,101670.59
2022-08-30T12:56:08.342Z,101668.91
2022-08-30T12:58:51.858Z,101664.88
2022-08-30T13:01:28.228Z,101660.00
2022-08-30T13:03:59.753Z,101664.84
2022-08-30T13:06:50.229Z,101665.66
2022-08-30T13:09:37.858Z,101669.19
2022-08-30T13:12:26.012Z,101669.38
2022-08-30T13:14:53.716Z,101664.44
2022-08-30T13:17:27.471Z,101667.06
2022-08-30T13:20:23.799Z,101664.19
2022-08-30T13:23:08.738Z,101666.72
2022-08-30T13:25:38.723Z,101663.75
2022-08-30T13:28:07.975Z,101654.59
2022-08-30T13:30:35.418Z,101651.28
2022-08-30T13:33:02.993Z,101657.53
2022-08-30T13:35:31.600Z,101666.75
2022-08-30T13:38:01.855Z,101659.88
2022-08-30T13:40:28.930Z,101657.91
2022-08-30T13:42:56.983Z,101647.53
2022-08-30T13:45:41.632Z,101653.19
2022-08-30T13:48:14.729Z,101652.16
2022-08-30T13:50:44.384Z,101647.75
2022-08-30T13:53:11.551Z,101642.97
2022-08-30T13:55:41.368Z,101647.59
2022-08-30T13:58:09.777Z,101650.59
2022-08-30T14:00:40.412Z,101647.88
2022-08-30T14:03:07.460Z,101647.69
2022-08-30T14:06:15.858Z,101664.75
2022-08-30T14:08:47.792Z,101646.22
2022-08-30T14:11:19.392Z,101645.13
2022-08-30T14:16:37.752Z,101655.16
2022-08-30T14:19:07.407Z,101642.16
2022-08-30T14:21:35.519Z,101645.44
2022-08-30T14:24:04.834Z,101650.88
2022-08-30T14:26:48.917Z,101637.81
2022-08-30T14:29:21.595Z,101639.19
2022-08-30T14:31:49.242Z,101643.72
2022-08-30T14:34:17.085Z,101648.97
2022-08-30T14:36:45.554Z,101643.78
2022-08-30T14:39:17.766Z,101639.19
2022-08-30T14:41:52.724Z,101630.75
2022-08-30T14:44:22.335Z,101640.31
2022-08-30T14:46:51.001Z,101640.81
2022-08-30T14:49:19.542Z,101636.75
2022-08-30T14:51:48.503Z,101631.88
2022-08-30T14:54:19.315Z,101634.00
2022-08-30T14:56:46.844Z,101638.91
2022-08-30T14:59:14.567Z,101630.81
2022-08-30T15:01:43.056Z,101626.66
2022-08-30T15:04:11.691Z,101624.25
2022-08-30T15:06:41.362Z,101631.88
2022-08-30T15:09:10.888Z,101628.56
2022-08-30T15:11:38.415Z,101634.84
2022-08-30T15:14:06.707Z,101625.94
2022-08-30T15:16:37.031Z,101621.81
2022-08-30T15:19:07.540Z,101620.56
2022-08-30T15:21:41.809Z,101626.16
2022-08-30T15:24:18.133Z,101616.34
2022-08-30T15:26:45.664Z,101617.47
2022-08-30T15:29:16.289Z,101617.91
2022-08-30T15:31:45.055Z,101624.84
2022-08-30T15:34:15.534Z,101627.19
2022-08-30T15:36:45.305Z,101621.84
2022-08-30T15:39:14.474Z,101623.19
2022-08-30T15:41:43.780Z,101616.59
2022-08-30T15:44:12.495Z,101619.84
2022-08-30T15:46:44.394Z,101620.56
2022-08-30T15:49:18.044Z,101618.13
2022-08-30T15:51:47.630Z,101606.63
2022-08-30T15:54:20.614Z,101606.38
2022-08-30T15:56:48.580Z,101609.31
2022-08-30T15:59:17.572Z,101612.63
2022-08-30T16:01:47.621Z,101617.25
2022-08-30T16:04:18.324Z,101618.25
2022-08-30T16:06:46.484Z,101614.25
2022-08-30T16:09:13.907Z,101605.78
2022-08-30T16:11:41.764Z,101603.09
2022-08-30T16:14:09.446Z,101605.72
2022-08-30T16:16:39.775Z,101608.88
2022-08-30T16:19:07.242Z,101611.41
2022-08-30T16:21:37.045Z,101605.28
2022-08-30T16:24:07.832Z,101604.31
2022-08-30T16:26:38.018Z,101607.94
2022-08-30T16:29:07.412Z,101612.53
2022-08-30T16:31:36.690Z,101618.31
2022-08-30T16:34:04.626Z,101613.41
2022-08-30T16:36:33.503Z,101609.81
2022-08-30T16:39:00.950Z,101611.97
2022-08-30T16:41:28.465Z,101620.78
2022-08-30T16:43:56.553Z,101612.03
2022-08-30T16:46:27.670Z,101622.13
2022-08-30T16:48:57.838Z,101610.63
2022-08-30T16:51:27.792Z,101608.91
2022-08-30T16:53:57.666Z,101620.16
2022-08-30T16:56:27.237Z,101618.22
2022-08-30T16:59:01.305Z,101625.09
2022-08-30T17:01:37.516Z,101622.84
2022-08-30T17:04:08.075Z,101616.09
2022-08-30T17:06:36.343Z,101621.06
2022-08-30T17:09:05.673Z,101628.34
2022-08-30T17:11:34.654Z,101623.34
2022-08-30T17:14:02.433Z,101616.97
2022-08-30T17:16:30.112Z,101617.44
2022-08-30T17:21:46.538Z,101628.13
2022-08-30T17:24:13.469Z,101626.19
2022-08-30T17:26:40.522Z,101636.38
2022-08-30T17:29:07.938Z,101639.03
2022-08-30T17:31:36.107Z,101634.13
2022-08-30T17:34:05.810Z,101632.28
2022-08-30T17:36:36.391Z,101641.00
2022-08-30T17:39:11.005Z,101651.03
2022-08-30T17:41:43.330Z,101654.06
2022-08-30T17:44:13.459Z,101657.28
2022-08-30T17:46:40.497Z,101650.91
2022-08-30T17:49:10.489Z,101659.59
2022-08-30T17:51:42.408Z,101666.72
2022-08-30T17:54:12.072Z,101669.88
2022-08-30T17:56:41.107Z,101665.28
2022-08-30T17:59:10.562Z,101671.72
2022-08-30T18:01:38.247Z,101678.25
2022-08-30T18:04:06.167Z,101689.25
2022-08-30T18:06:34.559Z,101687.56
2022-08-30T18:09:04.003Z,101694.34
2022-08-30T18:11:36.132Z,101701.97
2022-08-30T18:14:04.613Z,101695.19
2022-08-30T18:16:35.194Z,101713.41
2022-08-30T18:19:04.959Z,101712.31
2022-08-30T18:21:37.971Z,101702.91
2022-08-30T18:24:05.733Z,101713.53
2022-08-30T18:26:33.162Z,101723.53
2022-08-30T18:29:00.922Z,101720.25
2022-08-30T18:31:28.303Z,101729.78
2022-08-30T18:33:55.454Z,101726.84
2022-08-30T18:36:22.464Z,101733.84
2022-08-30T18:38:49.372Z,101739.56
2022-08-30T18:41:17.238Z,101741.81
2022-08-30T18:43:44.971Z,101739.84
2022-08-30T18:46:15.732Z,101737.25
2022-08-30T18:48:46.113Z,101735.97
2022-08-30T18:51:20.179Z,101738.97
2022-08-30T18:53:48.627Z,101742.84
2022-08-30T18:56:16.796Z,101752.06
2022-08-30T18:58:45.071Z,101752.63
2022-08-30T19:01:12.880Z,101755.81
2022-08-30T19:03:41.860Z,101760.88
2022-08-30T19:06:11.836Z,101760.19
2022-08-30T19:08:40.353Z,101763.75
2022-08-30T19:11:08.890Z,101766.75
2022-08-30T19:13:37.346Z,101769.88
2022-08-30T19:16:06.570Z,101775.38
2022-08-30T19:18:34.930Z,101775.19
2022-08-30T19:21:04.738Z,101776.28
2022-08-30T19:23:34.362Z,101772.78
2022-08-30T19:26:03.950Z,101779.88
2022-08-30T19:28:31.770Z,101781.28
2022-08-30T19:30:59.160Z,101785.69
2022-08-30T19:33:26.093Z,101788.06
2022-08-30T19:35:53.730Z,101781.53
2022-08-30T19:38:21.274Z,101788.19
2022-08-30T19:40:52.507Z,101786.66
2022-08-30T19:43:21.611Z,101786.56
2022-08-30T19:45:54.720Z,101795.03
2022-08-30T19:48:32.333Z,101783.88
2022-08-30T19:51:06.621Z,101789.03
2022-08-30T19:53:34.991Z,101790.38
2022-08-30T19:56:02.118Z,101789.28
2022-08-30T19:58:30.309Z,101789.16
2022-08-30T20:01:11.664Z,101796.41
2022-08-30T20:03:39.873Z,101801.09
2022-08-30T20:06:07.940Z,101807.81
2022-08-30T20:08:37.202Z,101805.34
2022-08-30T20:11:05.396Z,101799.22
2022-08-30T20:13:33.724Z,101805.75
2022-08-30T20:16:01.942Z,101812.75
2022-08-30T20:18:29.390Z,101807.50
2022-08-30T20:20:56.852Z,101794.47
2022-08-30T20:23:25.455Z,101803.47
2022-08-30T20:24:23.645Z,101628.28
2022-08-30T20:25:55.600Z,101811.19
2022-08-30T20:28:25.058Z,101796.72
2022-08-30T20:30:53.222Z,101814.66
2022-08-30T20:33:22.110Z,101815.69
2022-08-30T20:35:51.842Z,101813.47
2022-08-30T20:38:21.447Z,101827.09
2022-08-30T20:40:53.039Z,101815.94
2022-08-30T20:43:23.610Z,101819.84
2022-08-30T20:45:51.644Z,101819.81
2022-08-30T20:48:19.882Z,101826.38
2022-08-30T20:50:47.105Z,101829.03
2022-08-30T20:53:14.395Z,101826.28
2022-08-30T20:55:47.259Z,101827.84
2022-08-30T20:58:15.199Z,101830.69
2022-08-30T21:00:45.625Z,101832.00
2022-08-30T21:03:26.147Z,101830.97
2022-08-30T21:05:56.024Z,101829.63
2022-08-30T21:08:23.027Z,101822.44
2022-08-30T21:10:50.158Z,101827.94
2022-08-30T21:13:17.472Z,101822.91
2022-08-30T21:15:46.193Z,101820.88
2022-08-30T21:18:14.308Z,101821.63
2022-08-30T21:20:42.134Z,101821.03
2022-08-30T21:23:09.818Z,101826.72
2022-08-30T21:25:43.620Z,101820.84
2022-08-30T21:28:10.954Z,101821.84
2022-08-30T21:30:38.093Z,101827.47
2022-08-30T21:33:07.197Z,101819.19
2022-08-30T21:35:53.501Z,101823.69
2022-08-30T21:38:20.629Z,101833.13
2022-08-30T21:40:48.741Z,101832.81
2022-08-30T21:43:16.415Z,101840.97
2022-08-30T21:45:45.167Z,101835.19
2022-08-30T21:48:13.757Z,101835.41
2022-08-30T21:50:42.816Z,101823.13
2022-08-30T21:53:10.627Z,101838.94
2022-08-30T21:55:37.739Z,101828.16
2022-08-30T21:58:04.865Z,101837.94
2022-08-30T22:00:33.630Z,101839.69
2022-08-30T22:03:00.754Z,101843.88
2022-08-30T22:05:28.026Z,101854.94
2022-08-30T22:07:54.983Z,101848.38
2022-08-30T22:10:22.222Z,101848.50
2022-08-30T22:12:49.388Z,101849.78
2022-08-30T22:15:16.709Z,101832.34
2022-08-30T22:17:43.960Z,101848.19
2022-08-30T22:20:12.004Z,101837.66
2022-08-30T22:22:45.872Z,101841.00
2022-08-30T22:25:12.870Z,101846.44
2022-08-30T22:27:39.858Z,101838.22
2022-08-30T22:30:07.505Z,101841.94
2022-08-30T22:32:34.427Z,101842.19
2022-08-30T22:35:01.400Z,101839.53
2022-08-30T22:37:29.128Z,101835.16
2022-08-30T22:39:56.094Z,101838.94
2022-08-30T22:42:23.061Z,101845.91
2022-08-30T22:44:50.476Z,101847.28
2022-08-30T22:47:17.438Z,101843.44
2022-08-30T22:49:44.329Z,101836.59
2022-08-30T22:52:12.866Z,101838.44
2022-08-30T22:54:40.085Z,101844.41
2022-08-30T22:57:06.993Z,101838.03
2022-08-30T22:59:33.947Z,101836.16
2022-08-30T23:02:01.031Z,101841.03
2022-08-30T23:04:28.173Z,101834.19
2022-08-30T23:06:55.069Z,101836.03
2022-08-30T23:09:22.850Z,101841.94
2022-08-30T23:11:49.776Z,101845.25
2022-08-30T23:14:16.747Z,101852.69
2022-08-30T23:16:43.875Z,101844.63
2022-08-30T23:19:10.824Z,101851.84
2022-08-30T23:21:37.831Z,101848.56
2022-08-30T23:24:23.684Z,101848.78
2022-08-30T23:27:09.393Z,101859.03
2022-08-30T23:29:54.899Z,101842.44
2022-08-30T23:32:41.324Z,101842.38
2022-08-30T23:35:30.172Z,101843.44
2022-08-30T23:38:23.434Z,101849.19
2022-08-30T23:41:09.207Z,101853.09
2022-08-30T23:43:55.721Z,101846.69
2022-08-30T23:46:41.509Z,101837.25
2022-08-30T23:49:27.675Z,101845.66
2022-08-30T23:52:13.477Z,101839.91
2022-08-30T23:54:59.166Z,101848.34
2022-08-30T23:57:45.265Z,101843.47
